sensor_id;sensor_type;location;lat;lon;timestamp;temperature;humidity
67899;DHT22;54699;51.796;10.956;2022-08-14T00:01:01;26.60;48.10
67899;DHT22;54699;51.796;10.956;2022-08-14T00:03:30;26.60;48.20
67899;DHT22;54699;51.796;10.956;2022-08-14T00:05:58;26.60;48.20
67899;DHT22;54699;51.796;10.956;2022-08-14T00:08:26;26.60;48.20
67899;DHT22;54699;51.796;10.956;2022-08-14T00:10:53;26.60;48.20
67899;DHT22;54699;51.796;10.956;2022-08-14T00:13:22;26.60;48.30
67899;DHT22;54699;51.796;10.956;2022-08-14T00:15:52;26.60;48.20
67899;DHT22;54699;51.796;10.956;2022-08-14T00:18:20;26.60;48.30
67899;DHT22;54699;51.796;10.956;2022-08-14T00:20:50;26.60;48.30
67899;DHT22;54699;51.796;10.956;2022-08-14T00:23:18;26.60;48.20
67899;DHT22;54699;51.796;10.956;2022-08-14T00:25:50;26.60;48.30
67899;DHT22;54699;51.796;10.956;2022-08-14T00:28:18;26.60;48.30
67899;DHT22;54699;51.796;10.956;2022-08-14T00:30:51;26.60;48.20
67899;DHT22;54699;51.796;10.956;2022-08-14T00:33:18;26.60;48.30
67899;DHT22;54699;51.796;10.956;2022-08-14T00:35:45;26.60;48.30
67899;DHT22;54699;51.796;10.956;2022-08-14T00:38:13;26.60;48.30
67899;DHT22;54699;51.796;10.956;2022-08-14T00:40:39;26.60;48.80
67899;DHT22;54699;51.796;10.956;2022-08-14T00:43:06;26.60;48.30
67899;DHT22;54699;51.796;10.956;2022-08-14T00:45:34;26.60;48.30
67899;DHT22;54699;51.796;10.956;2022-08-14T00:48:01;26.60;48.40
67899;DHT22;54699;51.796;10.956;2022-08-14T00:50:29;26.60;48.40
67899;DHT22;54699;51.796;10.956;2022-08-14T00:52:56;26.60;48.30
67899;DHT22;54699;51.796;10.956;2022-08-14T00:55:26;26.60;48.30
67899;DHT22;54699;51.796;10.956;2022-08-14T00:57:54;26.60;48.30
67899;DHT22;54699;51.796;10.956;2022-08-14T01:00:35;26.60;48.30
67899;DHT22;54699;51.796;10.956;2022-08-14T01:03:02;26.60;48.40
67899;DHT22;54699;51.796;10.956;2022-08-14T01:05:30;26.60;48.40
67899;DHT22;54699;51.796;10.956;2022-08-14T01:07:58;26.60;48.40
67899;DHT22;54699;51.796;10.956;2022-08-14T01:10:27;26.60;48.40
67899;DHT22;54699;51.796;10.956;2022-08-14T01:13:09;26.60;48.40
67899;DHT22;54699;51.796;10.956;2022-08-14T01:15:36;26.60;48.40
67899;DHT22;54699;51.796;10.956;2022-08-14T01:18:02;26.50;48.40
67899;DHT22;54699;51.796;10.956;2022-08-14T01:20:47;26.60;48.50
67899;DHT22;54699;51.796;10.956;2022-08-14T01:23:32;26.50;48.40
67899;DHT22;54699;51.796;10.956;2022-08-14T01:26:00;26.50;48.40
67899;DHT22;54699;51.796;10.956;2022-08-14T01:28:28;26.50;48.40
67899;DHT22;54699;51.796;10.956;2022-08-14T01:30:55;26.50;48.50
67899;DHT22;54699;51.796;10.956;2022-08-14T01:33:23;26.60;48.60
67899;DHT22;54699;51.796;10.956;2022-08-14T01:35:53;26.50;48.50
67899;DHT22;54699;51.796;10.956;2022-08-14T01:38:20;26.50;48.50
67899;DHT22;54699;51.796;10.956;2022-08-14T01:40:49;26.50;48.40
67899;DHT22;54699;51.796;10.956;2022-08-14T01:43:16;26.50;48.50
67899;DHT22;54699;51.796;10.956;2022-08-14T01:45:43;26.50;48.60
67899;DHT22;54699;51.796;10.956;2022-08-14T01:48:10;26.50;48.50
67899;DHT22;54699;51.796;10.956;2022-08-14T01:50:37;26.50;48.60
67899;DHT22;54699;51.796;10.956;2022-08-14T01:53:06;26.50;48.70
67899;DHT22;54699;51.796;10.956;2022-08-14T01:55:32;26.50;48.70
67899;DHT22;54699;51.796;10.956;2022-08-14T01:58:01;26.50;49.60
67899;DHT22;54699;51.796;10.956;2022-08-14T02:00:28;26.50;48.70
67899;DHT22;54699;51.796;10.956;2022-08-14T02:02:55;26.50;48.80
67899;DHT22;54699;51.796;10.956;2022-08-14T02:05:22;26.50;48.80
67899;DHT22;54699;51.796;10.956;2022-08-14T02:07:55;26.50;48.70
67899;DHT22;54699;51.796;10.956;2022-08-14T02:10:22;26.50;48.80
67899;DHT22;54699;51.796;10.956;2022-08-14T02:12:53;26.50;48.80
67899;DHT22;54699;51.796;10.956;2022-08-14T02:15:23;26.50;48.80
67899;DHT22;54699;51.796;10.956;2022-08-14T02:17:50;26.50;48.70
67899;DHT22;54699;51.796;10.956;2022-08-14T02:20:17;26.50;48.80
67899;DHT22;54699;51.796;10.956;2022-08-14T02:22:44;26.50;48.70
67899;DHT22;54699;51.796;10.956;2022-08-14T02:25:11;26.50;48.80
67899;DHT22;54699;51.796;10.956;2022-08-14T02:27:38;26.50;48.80
67899;DHT22;54699;51.796;10.956;2022-08-14T02:30:07;26.50;48.80
67899;DHT22;54699;51.796;10.956;2022-08-14T02:32:36;26.40;48.70
67899;DHT22;54699;51.796;10.956;2022-08-14T02:35:04;26.50;48.80
67899;DHT22;54699;51.796;10.956;2022-08-14T02:37:40;26.50;48.80
67899;DHT22;54699;51.796;10.956;2022-08-14T02:40:07;26.50;48.80
67899;DHT22;54699;51.796;10.956;2022-08-14T02:42:34;26.40;48.70
67899;DHT22;54699;51.796;10.956;2022-08-14T02:45:01;26.40;48.70
67899;DHT22;54699;51.796;10.956;2022-08-14T02:47:28;26.40;48.70
67899;DHT22;54699;51.796;10.956;2022-08-14T02:49:57;26.40;48.70
67899;DHT22;54699;51.796;10.956;2022-08-14T02:52:23;26.40;48.80
67899;DHT22;54699;51.796;10.956;2022-08-14T02:54:51;26.40;48.70
67899;DHT22;54699;51.796;10.956;2022-08-14T02:57:18;26.40;48.80
67899;DHT22;54699;51.796;10.956;2022-08-14T02:59:47;26.50;48.80
67899;DHT22;54699;51.796;10.956;2022-08-14T03:02:16;26.50;48.90
67899;DHT22;54699;51.796;10.956;2022-08-14T03:04:42;26.40;48.80
67899;DHT22;54699;51.796;10.956;2022-08-14T03:07:10;26.40;48.80
67899;DHT22;54699;51.796;10.956;2022-08-14T03:09:41;26.40;48.80
67899;DHT22;54699;51.796;10.956;2022-08-14T03:12:08;26.40;48.80
67899;DHT22;54699;51.796;10.956;2022-08-14T03:14:35;26.40;48.80
67899;DHT22;54699;51.796;10.956;2022-08-14T03:17:03;26.40;48.70
67899;DHT22;54699;51.796;10.956;2022-08-14T03:19:34;26.40;48.70
67899;DHT22;54699;51.796;10.956;2022-08-14T03:22:01;26.40;48.80
67899;DHT22;54699;51.796;10.956;2022-08-14T03:24:29;26.40;48.70
67899;DHT22;54699;51.796;10.956;2022-08-14T03:26:56;26.40;48.80
67899;DHT22;54699;51.796;10.956;2022-08-14T03:29:23;26.40;48.90
67899;DHT22;54699;51.796;10.956;2022-08-14T03:31:53;26.40;49.00
67899;DHT22;54699;51.796;10.956;2022-08-14T03:34:20;26.40;48.90
67899;DHT22;54699;51.796;10.956;2022-08-14T03:36:47;26.40;49.00
67899;DHT22;54699;51.796;10.956;2022-08-14T03:39:18;26.40;48.90
67899;DHT22;54699;51.796;10.956;2022-08-14T03:41:47;26.40;48.90
67899;DHT22;54699;51.796;10.956;2022-08-14T03:44:15;26.40;48.80
67899;DHT22;54699;51.796;10.956;2022-08-14T03:46:42;26.40;48.90
67899;DHT22;54699;51.796;10.956;2022-08-14T03:49:08;26.40;48.80
67899;DHT22;54699;51.796;10.956;2022-08-14T03:51:36;26.30;48.70
67899;DHT22;54699;51.796;10.956;2022-08-14T03:54:03;26.30;48.90
67899;DHT22;54699;51.796;10.956;2022-08-14T03:56:32;26.30;48.90
67899;DHT22;54699;51.796;10.956;2022-08-14T03:59:03;26.40;48.80
67899;DHT22;54699;51.796;10.956;2022-08-14T04:01:35;26.30;48.90
67899;DHT22;54699;51.796;10.956;2022-08-14T04:04:03;26.30;48.90
67899;DHT22;54699;51.796;10.956;2022-08-14T04:06:31;26.30;48.90
67899;DHT22;54699;51.796;10.956;2022-08-14T04:08:58;26.30;48.80
67899;DHT22;54699;51.796;10.956;2022-08-14T04:11:25;26.30;48.90
67899;DHT22;54699;51.796;10.956;2022-08-14T04:13:51;26.30;49.00
67899;DHT22;54699;51.796;10.956;2022-08-14T04:16:20;26.30;49.00
67899;DHT22;54699;51.796;10.956;2022-08-14T04:18:49;26.30;48.90
67899;DHT22;54699;51.796;10.956;2022-08-14T04:21:17;26.30;48.90
67899;DHT22;54699;51.796;10.956;2022-08-14T04:23:45;26.30;49.00
67899;DHT22;54699;51.796;10.956;2022-08-14T04:26:13;26.30;49.00
67899;DHT22;54699;51.796;10.956;2022-08-14T04:28:43;26.30;49.00
67899;DHT22;54699;51.796;10.956;2022-08-14T04:31:10;26.30;49.00
67899;DHT22;54699;51.796;10.956;2022-08-14T04:33:38;26.30;49.00
67899;DHT22;54699;51.796;10.956;2022-08-14T04:36:05;26.30;49.00
67899;DHT22;54699;51.796;10.956;2022-08-14T04:38:32;26.30;49.00
67899;DHT22;54699;51.796;10.956;2022-08-14T04:41:17;26.30;49.00
67899;DHT22;54699;51.796;10.956;2022-08-14T04:44:01;26.30;49.10
67899;DHT22;54699;51.796;10.956;2022-08-14T04:46:29;26.30;49.00
67899;DHT22;54699;51.796;10.956;2022-08-14T04:48:57;26.30;49.00
67899;DHT22;54699;51.796;10.956;2022-08-14T04:51:22;26.30;49.10
67899;DHT22;54699;51.796;10.956;2022-08-14T04:53:50;26.30;49.10
67899;DHT22;54699;51.796;10.956;2022-08-14T04:56:18;26.30;49.20
67899;DHT22;54699;51.796;10.956;2022-08-14T04:58:52;26.30;49.10
67899;DHT22;54699;51.796;10.956;2022-08-14T05:01:22;26.30;49.10
67899;DHT22;54699;51.796;10.956;2022-08-14T05:03:49;26.30;49.10
67899;DHT22;54699;51.796;10.956;2022-08-14T05:06:17;26.30;49.10
67899;DHT22;54699;51.796;10.956;2022-08-14T05:08:44;26.30;49.10
67899;DHT22;54699;51.796;10.956;2022-08-14T05:11:11;26.30;49.20
67899;DHT22;54699;51.796;10.956;2022-08-14T05:13:37;26.30;49.10
67899;DHT22;54699;51.796;10.956;2022-08-14T05:16:04;26.30;49.20
67899;DHT22;54699;51.796;10.956;2022-08-14T05:18:33;26.30;49.20
67899;DHT22;54699;51.796;10.956;2022-08-14T05:21:02;26.30;49.30
67899;DHT22;54699;51.796;10.956;2022-08-14T05:23:33;26.30;49.20
67899;DHT22;54699;51.796;10.956;2022-08-14T05:26:03;26.20;49.10
67899;DHT22;54699;51.796;10.956;2022-08-14T05:28:38;26.20;49.20
67899;DHT22;54699;51.796;10.956;2022-08-14T05:31:08;26.20;49.20
67899;DHT22;54699;51.796;10.956;2022-08-14T05:33:36;26.20;49.20
67899;DHT22;54699;51.796;10.956;2022-08-14T05:36:04;26.20;49.20
67899;DHT22;54699;51.796;10.956;2022-08-14T05:38:35;26.20;49.30
67899;DHT22;54699;51.796;10.956;2022-08-14T05:41:04;26.30;49.40
67899;DHT22;54699;51.796;10.956;2022-08-14T05:43:32;26.20;49.30
67899;DHT22;54699;51.796;10.956;2022-08-14T05:45:59;26.20;49.30
67899;DHT22;54699;51.796;10.956;2022-08-14T05:48:27;26.20;49.40
67899;DHT22;54699;51.796;10.956;2022-08-14T05:50:54;26.20;49.40
67899;DHT22;54699;51.796;10.956;2022-08-14T05:53:21;26.20;49.50
67899;DHT22;54699;51.796;10.956;2022-08-14T05:55:49;26.20;49.50
67899;DHT22;54699;51.796;10.956;2022-08-14T05:58:16;26.20;49.60
67899;DHT22;54699;51.796;10.956;2022-08-14T06:00:44;26.20;49.60
67899;DHT22;54699;51.796;10.956;2022-08-14T06:03:12;26.20;49.70
67899;DHT22;54699;51.796;10.956;2022-08-14T06:05:41;26.20;49.80
67899;DHT22;54699;51.796;10.956;2022-08-14T06:08:15;26.20;49.70
67899;DHT22;54699;51.796;10.956;2022-08-14T06:10:42;26.20;49.60
67899;DHT22;54699;51.796;10.956;2022-08-14T06:13:10;26.20;49.80
67899;DHT22;54699;51.796;10.956;2022-08-14T06:15:37;26.20;49.90
67899;DHT22;54699;51.796;10.956;2022-08-14T06:18:06;26.20;49.80
67899;DHT22;54699;51.796;10.956;2022-08-14T06:20:33;26.20;49.90
67899;DHT22;54699;51.796;10.956;2022-08-14T06:23:00;26.20;50.00
67899;DHT22;54699;51.796;10.956;2022-08-14T06:25:27;26.20;50.00
67899;DHT22;54699;51.796;10.956;2022-08-14T06:27:54;26.20;50.10
67899;DHT22;54699;51.796;10.956;2022-08-14T06:30:23;26.20;50.00
67899;DHT22;54699;51.796;10.956;2022-08-14T06:32:51;26.20;50.10
67899;DHT22;54699;51.796;10.956;2022-08-14T06:35:18;26.20;50.30
67899;DHT22;54699;51.796;10.956;2022-08-14T06:37:48;26.20;50.30
67899;DHT22;54699;51.796;10.956;2022-08-14T06:40:16;26.20;50.40
67899;DHT22;54699;51.796;10.956;2022-08-14T06:42:44;26.20;50.50
67899;DHT22;54699;51.796;10.956;2022-08-14T06:45:11;26.20;50.50
67899;DHT22;54699;51.796;10.956;2022-08-14T06:47:40;26.20;50.70
67899;DHT22;54699;51.796;10.956;2022-08-14T06:50:09;26.20;50.80
67899;DHT22;54699;51.796;10.956;2022-08-14T06:52:37;26.20;50.80
67899;DHT22;54699;51.796;10.956;2022-08-14T06:55:05;26.20;50.90
67899;DHT22;54699;51.796;10.956;2022-08-14T06:57:34;26.20;51.00
67899;DHT22;54699;51.796;10.956;2022-08-14T07:00:02;26.20;51.00
67899;DHT22;54699;51.796;10.956;2022-08-14T07:02:29;26.20;51.30
67899;DHT22;54699;51.796;10.956;2022-08-14T07:05:15;26.20;51.20
67899;DHT22;54699;51.796;10.956;2022-08-14T07:07:59;26.20;51.30
67899;DHT22;54699;51.796;10.956;2022-08-14T07:10:25;26.20;51.40
67899;DHT22;54699;51.796;10.956;2022-08-14T07:12:52;26.20;51.50
67899;DHT22;54699;51.796;10.956;2022-08-14T07:15:19;26.20;51.60
67899;DHT22;54699;51.796;10.956;2022-08-14T07:17:46;26.20;51.40
67899;DHT22;54699;51.796;10.956;2022-08-14T07:20:15;26.20;51.70
67899;DHT22;54699;51.796;10.956;2022-08-14T07:22:44;26.20;51.80
67899;DHT22;54699;51.796;10.956;2022-08-14T07:25:11;26.20;51.80
67899;DHT22;54699;51.796;10.956;2022-08-14T07:27:38;26.20;52.10
67899;DHT22;54699;51.796;10.956;2022-08-14T07:30:05;26.20;52.00
67899;DHT22;54699;51.796;10.956;2022-08-14T07:32:32;26.30;52.10
67899;DHT22;54699;51.796;10.956;2022-08-14T07:34:59;26.30;52.20
67899;DHT22;54699;51.796;10.956;2022-08-14T07:37:27;26.20;52.30
67899;DHT22;54699;51.796;10.956;2022-08-14T07:39:54;26.20;52.40
67899;DHT22;54699;51.796;10.956;2022-08-14T07:42:20;26.20;52.60
67899;DHT22;54699;51.796;10.956;2022-08-14T07:44:47;26.20;52.60
67899;DHT22;54699;51.796;10.956;2022-08-14T07:47:14;26.20;52.80
67899;DHT22;54699;51.796;10.956;2022-08-14T07:49:41;26.20;52.90
67899;DHT22;54699;51.796;10.956;2022-08-14T07:52:08;26.20;52.70
67899;DHT22;54699;51.796;10.956;2022-08-14T07:54:36;26.30;53.20
67899;DHT22;54699;51.796;10.956;2022-08-14T07:57:02;26.20;53.20
67899;DHT22;54699;51.796;10.956;2022-08-14T07:59:29;26.20;53.30
67899;DHT22;54699;51.796;10.956;2022-08-14T08:01:56;26.20;53.20
67899;DHT22;54699;51.796;10.956;2022-08-14T08:04:25;26.20;53.20
67899;DHT22;54699;51.796;10.956;2022-08-14T08:06:54;26.20;53.60
67899;DHT22;54699;51.796;10.956;2022-08-14T08:09:21;26.20;53.70
67899;DHT22;54699;51.796;10.956;2022-08-14T08:11:51;26.20;53.50
67899;DHT22;54699;51.796;10.956;2022-08-14T08:14:19;26.20;53.20
67899;DHT22;54699;51.796;10.956;2022-08-14T08:16:46;26.20;53.70
67899;DHT22;54699;51.796;10.956;2022-08-14T08:19:13;26.30;53.90
67899;DHT22;54699;51.796;10.956;2022-08-14T08:21:43;26.30;54.20
67899;DHT22;54699;51.796;10.956;2022-08-14T08:24:11;26.30;54.80
67899;DHT22;54699;51.796;10.956;2022-08-14T08:26:37;26.30;54.50
67899;DHT22;54699;51.796;10.956;2022-08-14T08:29:05;26.30;54.60
67899;DHT22;54699;51.796;10.956;2022-08-14T08:31:44;26.30;54.40
67899;DHT22;54699;51.796;10.956;2022-08-14T08:34:12;26.30;53.80
67899;DHT22;54699;51.796;10.956;2022-08-14T08:36:39;26.20;53.20
67899;DHT22;54699;51.796;10.956;2022-08-14T08:39:07;26.20;53.60
67899;DHT22;54699;51.796;10.956;2022-08-14T08:41:40;26.30;53.60
67899;DHT22;54699;51.796;10.956;2022-08-14T08:44:09;26.20;53.50
67899;DHT22;54699;51.796;10.956;2022-08-14T08:46:36;26.30;53.00
67899;DHT22;54699;51.796;10.956;2022-08-14T08:49:04;26.30;52.80
67899;DHT22;54699;51.796;10.956;2022-08-14T08:51:32;26.30;52.70
67899;DHT22;54699;51.796;10.956;2022-08-14T08:54:01;26.30;52.60
67899;DHT22;54699;51.796;10.956;2022-08-14T08:56:33;26.30;52.70
67899;DHT22;54699;51.796;10.956;2022-08-14T08:59:02;26.30;52.30
67899;DHT22;54699;51.796;10.956;2022-08-14T09:01:41;26.30;52.40
67899;DHT22;54699;51.796;10.956;2022-08-14T09:04:13;26.30;52.30
67899;DHT22;54699;51.796;10.956;2022-08-14T09:06:42;26.30;52.30
67899;DHT22;54699;51.796;10.956;2022-08-14T09:09:16;26.30;52.00
67899;DHT22;54699;51.796;10.956;2022-08-14T09:11:43;26.30;51.90
67899;DHT22;54699;51.796;10.956;2022-08-14T09:14:10;26.40;51.90
67899;DHT22;54699;51.796;10.956;2022-08-14T09:16:36;26.30;51.80
67899;DHT22;54699;51.796;10.956;2022-08-14T09:19:04;26.40;51.80
67899;DHT22;54699;51.796;10.956;2022-08-14T09:21:31;26.40;51.90
67899;DHT22;54699;51.796;10.956;2022-08-14T09:23:59;26.40;51.60
67899;DHT22;54699;51.796;10.956;2022-08-14T09:26:26;26.30;51.40
67899;DHT22;54699;51.796;10.956;2022-08-14T09:28:52;26.40;51.40
67899;DHT22;54699;51.796;10.956;2022-08-14T09:31:19;26.40;51.50
67899;DHT22;54699;51.796;10.956;2022-08-14T09:33:52;26.40;51.20
67899;DHT22;54699;51.796;10.956;2022-08-14T09:39:50;26.40;51.10
67899;DHT22;54699;51.796;10.956;2022-08-14T09:42:31;26.40;50.60
67899;DHT22;54699;51.796;10.956;2022-08-14T09:45:08;26.50;50.70
67899;DHT22;54699;51.796;10.956;2022-08-14T09:47:39;26.50;50.80
67899;DHT22;54699;51.796;10.956;2022-08-14T09:50:14;26.50;50.70
67899;DHT22;54699;51.796;10.956;2022-08-14T09:52:48;26.50;50.50
67899;DHT22;54699;51.796;10.956;2022-08-14T09:55:18;26.50;50.60
67899;DHT22;54699;51.796;10.956;2022-08-14T09:57:46;26.50;50.50
67899;DHT22;54699;51.796;10.956;2022-08-14T10:00:13;26.50;50.50
67899;DHT22;54699;51.796;10.956;2022-08-14T10:02:50;26.50;50.30
67899;DHT22;54699;51.796;10.956;2022-08-14T10:05:26;26.50;50.40
67899;DHT22;54699;51.796;10.956;2022-08-14T10:07:55;26.50;50.30
67899;DHT22;54699;51.796;10.956;2022-08-14T10:10:27;26.60;50.30
67899;DHT22;54699;51.796;10.956;2022-08-14T10:12:56;26.60;50.40
67899;DHT22;54699;51.796;10.956;2022-08-14T10:15:25;26.50;50.20
67899;DHT22;54699;51.796;10.956;2022-08-14T10:18:03;26.60;50.40
67899;DHT22;54699;51.796;10.956;2022-08-14T10:20:34;26.60;50.40
67899;DHT22;54699;51.796;10.956;2022-08-14T10:23:12;26.60;50.20
67899;DHT22;54699;51.796;10.956;2022-08-14T10:25:43;26.60;50.20
67899;DHT22;54699;51.796;10.956;2022-08-14T10:28:11;26.60;50.30
67899;DHT22;54699;51.796;10.956;2022-08-14T10:30:41;26.60;50.20
67899;DHT22;54699;51.796;10.956;2022-08-14T10:33:22;26.60;50.20
67899;DHT22;54699;51.796;10.956;2022-08-14T10:35:50;26.60;50.00
67899;DHT22;54699;51.796;10.956;2022-08-14T10:38:24;26.60;50.10
67899;DHT22;54699;51.796;10.956;2022-08-14T10:40:53;26.60;49.90
67899;DHT22;54699;51.796;10.956;2022-08-14T10:43:21;26.60;49.80
67899;DHT22;54699;51.796;10.956;2022-08-14T10:45:51;26.60;49.80
67899;DHT22;54699;51.796;10.956;2022-08-14T10:48:20;26.60;49.90
67899;DHT22;54699;51.796;10.956;2022-08-14T10:50:46;26.60;49.90
67899;DHT22;54699;51.796;10.956;2022-08-14T10:53:25;26.60;49.90
67899;DHT22;54699;51.796;10.956;2022-08-14T10:55:58;26.70;50.00
67899;DHT22;54699;51.796;10.956;2022-08-14T10:58:28;26.70;50.00
67899;DHT22;54699;51.796;10.956;2022-08-14T11:00:57;26.70;50.10
67899;DHT22;54699;51.796;10.956;2022-08-14T11:03:35;26.70;50.10
67899;DHT22;54699;51.796;10.956;2022-08-14T11:06:10;26.70;50.40
67899;DHT22;54699;51.796;10.956;2022-08-14T11:08:40;26.70;50.60
67899;DHT22;54699;51.796;10.956;2022-08-14T11:11:08;26.80;50.70
67899;DHT22;54699;51.796;10.956;2022-08-14T11:13:35;26.80;50.70
67899;DHT22;54699;51.796;10.956;2022-08-14T11:16:03;26.80;50.70
67899;DHT22;54699;51.796;10.956;2022-08-14T11:18:30;26.80;50.80
67899;DHT22;54699;51.796;10.956;2022-08-14T11:20:58;26.80;50.70
67899;DHT22;54699;51.796;10.956;2022-08-14T11:23:28;26.80;50.80
67899;DHT22;54699;51.796;10.956;2022-08-14T11:25:58;26.80;50.90
67899;DHT22;54699;51.796;10.956;2022-08-14T11:28:29;26.90;51.10
67899;DHT22;54699;51.796;10.956;2022-08-14T11:30:58;26.90;51.20
67899;DHT22;54699;51.796;10.956;2022-08-14T11:33:28;26.90;51.40
67899;DHT22;54699;51.796;10.956;2022-08-14T11:35:59;26.90;51.50
67899;DHT22;54699;51.796;10.956;2022-08-14T11:38:34;26.90;51.40
67899;DHT22;54699;51.796;10.956;2022-08-14T11:41:02;27.00;51.50
67899;DHT22;54699;51.796;10.956;2022-08-14T11:43:30;27.00;51.50
67899;DHT22;54699;51.796;10.956;2022-08-14T11:45:58;27.00;51.70
67899;DHT22;54699;51.796;10.956;2022-08-14T11:48:26;27.00;51.60
67899;DHT22;54699;51.796;10.956;2022-08-14T11:50:53;27.10;51.70
67899;DHT22;54699;51.796;10.956;2022-08-14T11:53:21;27.10;51.70
67899;DHT22;54699;51.796;10.956;2022-08-14T11:55:54;27.10;51.70
67899;DHT22;54699;51.796;10.956;2022-08-14T11:58:25;27.10;51.80
67899;DHT22;54699;51.796;10.956;2022-08-14T12:00:55;27.10;52.00
67899;DHT22;54699;51.796;10.956;2022-08-14T12:03:35;27.10;52.00
67899;DHT22;54699;51.796;10.956;2022-08-14T12:06:04;27.10;52.00
67899;DHT22;54699;51.796;10.956;2022-08-14T12:08:32;27.20;52.30
67899;DHT22;54699;51.796;10.956;2022-08-14T12:11:00;27.20;52.10
67899;DHT22;54699;51.796;10.956;2022-08-14T12:13:28;27.20;52.20
67899;DHT22;54699;51.796;10.956;2022-08-14T12:15:59;27.20;52.20
67899;DHT22;54699;51.796;10.956;2022-08-14T12:18:28;27.20;52.10
67899;DHT22;54699;51.796;10.956;2022-08-14T12:20:56;27.20;52.20
67899;DHT22;54699;51.796;10.956;2022-08-14T12:23:24;27.20;52.10
67899;DHT22;54699;51.796;10.956;2022-08-14T12:26:00;27.20;52.10
67899;DHT22;54699;51.796;10.956;2022-08-14T12:28:28;27.20;52.10
67899;DHT22;54699;51.796;10.956;2022-08-14T12:30:55;27.20;52.20
67899;DHT22;54699;51.796;10.956;2022-08-14T12:33:24;27.20;52.20
67899;DHT22;54699;51.796;10.956;2022-08-14T12:35:55;27.20;52.30
67899;DHT22;54699;51.796;10.956;2022-08-14T12:38:31;27.30;52.60
67899;DHT22;54699;51.796;10.956;2022-08-14T12:41:00;27.30;52.60
67899;DHT22;54699;51.796;10.956;2022-08-14T12:43:27;27.30;52.70
67899;DHT22;54699;51.796;10.956;2022-08-14T12:45:55;27.30;52.60
67899;DHT22;54699;51.796;10.956;2022-08-14T12:48:22;27.40;52.60
67899;DHT22;54699;51.796;10.956;2022-08-14T12:50:53;27.40;52.60
67899;DHT22;54699;51.796;10.956;2022-08-14T12:53:20;27.40;52.50
67899;DHT22;54699;51.796;10.956;2022-08-14T12:55:58;27.40;52.40
67899;DHT22;54699;51.796;10.956;2022-08-14T12:58:26;27.40;52.50
67899;DHT22;54699;51.796;10.956;2022-08-14T13:00:54;27.30;52.40
67899;DHT22;54699;51.796;10.956;2022-08-14T13:03:23;27.40;52.60
67899;DHT22;54699;51.796;10.956;2022-08-14T13:05:51;27.40;52.70
67899;DHT22;54699;51.796;10.956;2022-08-14T13:08:20;27.40;52.80
67899;DHT22;54699;51.796;10.956;2022-08-14T13:10:47;27.40;52.80
67899;DHT22;54699;51.796;10.956;2022-08-14T13:13:15;27.50;52.90
67899;DHT22;54699;51.796;10.956;2022-08-14T13:15:43;27.50;52.80
67899;DHT22;54699;51.796;10.956;2022-08-14T13:18:12;27.50;52.80
67899;DHT22;54699;51.796;10.956;2022-08-14T13:20:42;27.50;52.80
67899;DHT22;54699;51.796;10.956;2022-08-14T13:23:11;27.50;52.80
67899;DHT22;54699;51.796;10.956;2022-08-14T13:25:42;27.50;52.70
67899;DHT22;54699;51.796;10.956;2022-08-14T13:28:10;27.60;52.80
67899;DHT22;54699;51.796;10.956;2022-08-14T13:30:37;27.60;52.70
67899;DHT22;54699;51.796;10.956;2022-08-14T13:33:08;27.60;52.70
67899;DHT22;54699;51.796;10.956;2022-08-14T13:35:35;27.60;52.60
67899;DHT22;54699;51.796;10.956;2022-08-14T13:38:04;27.60;52.60
67899;DHT22;54699;51.796;10.956;2022-08-14T13:40:30;27.60;52.70
67899;DHT22;54699;51.796;10.956;2022-08-14T13:42:57;27.60;52.60
67899;DHT22;54699;51.796;10.956;2022-08-14T13:45:24;27.60;52.80
67899;DHT22;54699;51.796;10.956;2022-08-14T13:47:51;27.70;52.80
67899;DHT22;54699;51.796;10.956;2022-08-14T13:50:19;27.70;52.80
67899;DHT22;54699;51.796;10.956;2022-08-14T13:52:47;27.70;52.80
67899;DHT22;54699;51.796;10.956;2022-08-14T13:55:19;27.70;52.90
67899;DHT22;54699;51.796;10.956;2022-08-14T13:57:48;27.70;52.80
67899;DHT22;54699;51.796;10.956;2022-08-14T14:00:15;27.70;52.80
67899;DHT22;54699;51.796;10.956;2022-08-14T14:02:43;27.80;52.80
67899;DHT22;54699;51.796;10.956;2022-08-14T14:05:13;27.80;52.90
67899;DHT22;54699;51.796;10.956;2022-08-14T14:07:43;27.80;52.80
67899;DHT22;54699;51.796;10.956;2022-08-14T14:10:12;27.80;52.80
67899;DHT22;54699;51.796;10.956;2022-08-14T14:12:42;27.80;53.70
67899;DHT22;54699;51.796;10.956;2022-08-14T14:15:10;27.80;52.80
67899;DHT22;54699;51.796;10.956;2022-08-14T14:17:39;27.90;52.70
67899;DHT22;54699;51.796;10.956;2022-08-14T14:20:08;27.90;52.80
67899;DHT22;54699;51.796;10.956;2022-08-14T14:22:38;27.90;52.80
67899;DHT22;54699;51.796;10.956;2022-08-14T14:25:07;27.90;52.80
67899;DHT22;54699;51.796;10.956;2022-08-14T14:27:34;27.90;52.80
67899;DHT22;54699;51.796;10.956;2022-08-14T14:30:04;27.90;52.80
67899;DHT22;54699;51.796;10.956;2022-08-14T14:32:32;27.90;52.80
67899;DHT22;54699;51.796;10.956;2022-08-14T14:35:07;27.90;52.70
67899;DHT22;54699;51.796;10.956;2022-08-14T14:37:36;27.90;52.90
67899;DHT22;54699;51.796;10.956;2022-08-14T14:40:04;27.90;53.00
67899;DHT22;54699;51.796;10.956;2022-08-14T14:42:32;27.90;53.00
67899;DHT22;54699;51.796;10.956;2022-08-14T14:45:02;27.90;52.80
67899;DHT22;54699;51.796;10.956;2022-08-14T14:47:35;27.90;52.90
67899;DHT22;54699;51.796;10.956;2022-08-14T14:50:02;28.00;53.10
67899;DHT22;54699;51.796;10.956;2022-08-14T14:52:29;28.00;53.00
67899;DHT22;54699;51.796;10.956;2022-08-14T14:54:56;28.00;53.00
67899;DHT22;54699;51.796;10.956;2022-08-14T14:57:24;28.00;53.00
67899;DHT22;54699;51.796;10.956;2022-08-14T14:59:52;28.00;53.00
67899;DHT22;54699;51.796;10.956;2022-08-14T15:02:25;28.00;53.00
67899;DHT22;54699;51.796;10.956;2022-08-14T15:04:57;28.00;53.00
67899;DHT22;54699;51.796;10.956;2022-08-14T15:07:23;28.00;53.00
67899;DHT22;54699;51.796;10.956;2022-08-14T15:09:50;28.00;52.90
67899;DHT22;54699;51.796;10.956;2022-08-14T15:12:16;28.00;52.90
67899;DHT22;54699;51.796;10.956;2022-08-14T15:14:43;28.00;52.90
67899;DHT22;54699;51.796;10.956;2022-08-14T15:17:10;28.00;52.80
67899;DHT22;54699;51.796;10.956;2022-08-14T15:19:38;28.00;52.90
67899;DHT22;54699;51.796;10.956;2022-08-14T15:22:06;28.00;52.90
67899;DHT22;54699;51.796;10.956;2022-08-14T15:24:33;28.00;52.90
67899;DHT22;54699;51.796;10.956;2022-08-14T15:26:59;28.00;52.90
67899;DHT22;54699;51.796;10.956;2022-08-14T15:29:27;28.00;53.00